Řízení letového provozu České republiky  
Aktualizace dat:  19.09.2018 18:32:08 UTC English version
   METEO Zobrazení stránky:  19.09.2018 18:32:56 UTC  
vysvětlivky
METAR EDDB 191820Z 16007KT CAVOK 25/12 Q1016 NOSIG=
METAR EDDC 191820Z 17005KT CAVOK 23/11 Q1019 NOSIG=
METAR EDDE 191820Z 20006KT CAVOK 23/11 Q1018 NOSIG=
METAR EDDF 191820Z 20005KT CAVOK 24/13 Q1018 NOSIG=
METAR EDDM 191820Z 17001KT CAVOK 18/13 Q1022 NOSIG=
METAR EDDN 191820Z 12006KT CAVOK 21/14 Q1020 NOSIG=
METAR EDDP 191820Z 18005KT CAVOK 24/11 Q1017 NOSIG=
METAR EDDT 191820Z 16006KT CAVOK 26/11 Q1016 NOSIG=
METAR EDQM 191750Z 21004KT CAVOK 20/10 Q1021=
METAR EPBY 191830Z VRB01KT CAVOK 19/13 Q1018 =
METAR EPGD 191830Z 13003KT CAVOK 15/14 Q1018 =
METAR EPKK 191830Z VRB01KT CAVOK 17/12 Q1021 =
METAR EPKT 191830Z VRB01KT CAVOK 17/10 Q1021 =
METAR EPLL 191830Z VRB01KT CAVOK 20/14 Q1019 =
METAR EPPO 191830Z 17002KT CAVOK 20/13 Q1018 =
METAR EPRZ 191830Z VRB01KT CAVOK 16/13 Q1021 =
METAR EPWA 191830Z 19003KT CAVOK 21/14 Q1018 NOSIG=
METAR EPWR 191830Z 21004KT CAVOK 20/14 Q1019 =
METAR LHBP 191830Z 35004KT CAVOK 18/15 Q1021 NOSIG=
METAR LHSM NIL
METAR LKBC 191830Z AUTO VRB02KT CAVOK 17/15 Q1021=
METAR LKCV 191800Z 20005KT CAVOK 21/15 Q1020 NOSIG RMK BLU BLU=
METAR LKKB 191800Z 18005KT CAVOK 22/15 Q1020 NOSIG RMK BLU BLU=
METAR LKKU NIL
METAR LKKV 191830Z VRB02KT CAVOK 18/11 Q1022 RMK REG QNH 1018=
METAR LKLN 191830Z AUTO 24005KT CAVOK 22/13 Q1021=
METAR LKMT 191830Z 20004KT CAVOK 19/12 Q1021 NOSIG RMK REG QNH 1018 =
METAR LKNA 191800Z 14003KT CAVOK 19/14 Q1022 NOSIG RMK BLU BLU=
METAR LKPD 191800Z VRB02KT CAVOK 22/14 Q1020 NOSIG RMK BLU BLU=
METAR LKPR 191830Z 22007KT CAVOK 20/12 Q1020 NOSIG RMK REG QNH 1018=
METAR LKTB 191830Z 06003KT CAVOK 21/15 Q1021 NOSIG RMK REG QNH 1018=
METAR LKVO NIL
METAR LOWI 191820Z VRB02KT CAVOK 18/14 Q1023 NOSIG=
METAR LOWL 191820Z VRB01KT CAVOK 20/15 Q1022 NOSIG=
METAR LOWS 191820Z 15005KT 130V190 9999 FEW060 19/15 Q1022 NOSIG=
METAR LOWW 191820Z 17005KT 9999 FEW048 20/15 Q1021 NOSIG=
METAR LZIB 191830Z 31002KT CAVOK 20/15 Q1021=
METAR LZKZ 191830Z 35003KT 310V030 CAVOK 19/11 Q1021=
METAR LZMC 191800Z 17002KT CAVOK 19/14 Q1022=
METAR LZPP 191800Z 10004KT CAVOK 18/13 Q1021=
METAR LZSL 191800Z 33001KT CAVOK 19/11 Q1022=
METAR LZTT 191830Z 28004KT 250V310 9999 FEW060 11/09 Q1023=
METAR LZZI 191800Z 10003KT 040V130 CAVOK 16/11 Q1022=